Airfield :
LOGIN :

Register | Disclaimer

   EN    FR    IT 

 










Legend :    VFR   Marginal VFR   IFR   Intensive IFR   Very Intensive IFR
Visi :
Ceiling :
>= 8 km
>= 3000ft
5 to 8 km
1000 to 3000 ft
1500m to 5 km
500 to 1000 ft
800 to 1500m
200 to 500 ft
< 800m
< 200 ft
Symbols :   Thunderstorms  Fog  Heavy snow  Heavy precipitations  Wind > 20 kt
SIGMETs :     Misc.  Thunderstorms  Icing  Turbulence  Mountain Waves  Volcanic Ashes






- Airport Elevation : 989 ft
- IATA code : TRN


LIMF - Torino Caselle

CURRENT METAR :
  • 090920Z 20003KT 160V230 CAVOK 06/03 Q1009

EXPIRED METARs :
  • 090850Z VRB02KT CAVOK 05/03 Q1009
  • 090820Z 25004KT 190V310 7000 NSC 04/02 Q1009
  • 090750Z 35005KT 300V020 8000 FEW025 03/02 Q1009
  • 090720Z 32003KT 290V350 8000 FEW025 04/02 Q1009
  • 090650Z 26005KT 8000 FEW025 03/02 Q1009

TAF TAF LIMF
Valid from the 09 at 06:00 until the 10 at 06:00 UTC


090500Z 0906/1006 VRB05KT 7000 SCT040
TEMPO 0906/0908 3000 BR
BECMG 0921/0924 28015KT



MET'MAP, your aeronautical weather chart ! - Copyright ORBIFLY December 2007 - Disclaimer

ORBIFLY MET'MAP TEAM :

Programming & Development : Alexandra Zaïnal
Concept & original design : Baudouin d'Aumeries
Assistance for programming : Marc-Olivier Méhu
Technical & hardware support : Manuel Goepfert

Contact : metmap@orbifly.com




SOURCES & CREDITS :

   NOAA